createdAt,value
2018-08-31T00:01:08.793Z,4.07
2018-08-31T00:05:55.165Z,3.63
2018-08-31T00:10:37.437Z,3.60
2018-08-31T00:13:06.018Z,3.30
2018-08-31T00:24:38.614Z,3.80
2018-08-31T00:27:18.213Z,3.83
2018-08-31T00:29:57.812Z,3.90
2018-08-31T00:33:08.174Z,4.07
2018-08-31T00:37:56.993Z,3.80
2018-08-31T00:40:56.918Z,4.03
2018-08-31T00:43:38.570Z,4.23
2018-08-31T00:46:06.834Z,4.30
2018-08-31T00:48:35.099Z,4.53
2018-08-31T00:51:03.360Z,3.90
2018-08-31T00:53:31.676Z,4.57
2018-08-31T00:56:00.082Z,4.22
2018-08-31T00:58:28.393Z,3.87
2018-08-31T01:00:56.709Z,4.20
2018-08-31T01:03:24.975Z,4.20
2018-08-31T01:05:53.256Z,4.40
2018-08-31T01:08:21.565Z,4.42
2018-08-31T01:10:49.912Z,4.17
2018-08-31T01:13:18.137Z,4.50
2018-08-31T01:15:46.359Z,4.35
2018-08-31T01:18:14.612Z,4.53
2018-08-31T01:20:42.974Z,4.30
2018-08-31T01:23:11.221Z,4.45
2018-08-31T01:25:39.500Z,4.90
2018-08-31T01:28:07.735Z,4.47
2018-08-31T01:30:36.018Z,4.60
2018-08-31T01:33:04.717Z,4.70
2018-08-31T01:35:33.980Z,4.90
2018-08-31T01:38:02.255Z,4.60
2018-08-31T01:40:30.515Z,4.95
2018-08-31T01:42:58.780Z,4.60
2018-08-31T01:45:27.007Z,4.73
2018-08-31T01:47:55.295Z,4.30
2018-08-31T01:50:23.571Z,5.30
2018-08-31T01:52:51.886Z,5.13
2018-08-31T01:55:25.250Z,4.85
2018-08-31T01:57:53.491Z,5.10
2018-08-31T02:00:21.802Z,5.00
2018-08-31T02:02:50.115Z,4.80
2018-08-31T02:05:18.428Z,4.87
2018-08-31T02:07:46.651Z,5.30
2018-08-31T02:10:14.903Z,5.08
2018-08-31T02:12:43.424Z,5.00
2018-08-31T02:15:11.678Z,5.10
2018-08-31T02:17:40.049Z,4.93
2018-08-31T02:20:08.309Z,5.30
2018-08-31T02:22:36.629Z,5.13
2018-08-31T02:25:04.876Z,5.53
2018-08-31T02:27:33.125Z,4.92
2018-08-31T02:30:01.363Z,4.90
2018-08-31T02:32:29.643Z,4.87
2018-08-31T02:34:57.888Z,4.72
2018-08-31T02:37:26.185Z,4.63
2018-08-31T02:39:54.424Z,4.67
2018-08-31T02:42:22.678Z,5.30
2018-08-31T02:44:50.912Z,4.83
2018-08-31T02:47:19.237Z,5.00
2018-08-31T02:49:47.483Z,5.50
2018-08-31T02:52:15.781Z,5.47
2018-08-31T02:54:44.014Z,4.93
2018-08-31T02:57:12.277Z,5.12
2018-08-31T02:59:40.560Z,4.90
2018-08-31T03:02:08.853Z,5.17
2018-08-31T03:04:37.085Z,4.62
2018-08-31T03:07:05.336Z,5.40
2018-08-31T03:09:33.580Z,4.97
2018-08-31T03:12:01.841Z,4.95
2018-08-31T03:14:30.027Z,4.40
2018-08-31T03:16:58.257Z,4.73
2018-08-31T03:19:26.492Z,4.78
2018-08-31T03:21:54.783Z,4.43
2018-08-31T03:24:23.050Z,4.77
2018-08-31T03:26:51.301Z,4.97
2018-08-31T03:29:19.571Z,5.27
2018-08-31T03:31:47.863Z,5.07
2018-08-31T03:34:16.175Z,5.42
2018-08-31T03:36:44.453Z,5.33
2018-08-31T03:39:12.725Z,5.27
2018-08-31T03:41:41.061Z,5.37
2018-08-31T03:44:09.391Z,5.77
2018-08-31T03:46:37.664Z,5.10
2018-08-31T03:49:06.019Z,5.80
2018-08-31T03:51:34.329Z,5.60
2018-08-31T03:54:02.594Z,6.33
2018-08-31T03:56:30.870Z,5.65
2018-08-31T03:58:59.144Z,6.00
2018-08-31T04:01:27.399Z,5.97
2018-08-31T04:03:55.701Z,6.10
2018-08-31T04:06:23.989Z,6.17
2018-08-31T04:08:52.241Z,6.13
2018-08-31T04:11:21.458Z,5.75
2018-08-31T04:13:49.818Z,6.30
2018-08-31T04:16:18.108Z,5.85
2018-08-31T04:18:46.471Z,5.77
2018-08-31T04:21:14.732Z,6.03
2018-08-31T04:23:43.024Z,6.27
2018-08-31T04:26:11.280Z,6.47
2018-08-31T04:28:39.775Z,5.55
2018-08-31T04:31:08.047Z,6.47
2018-08-31T04:33:36.331Z,6.78
2018-08-31T04:36:04.821Z,6.87
2018-08-31T04:38:33.106Z,5.97
2018-08-31T04:41:01.377Z,6.40
2018-08-31T04:43:29.700Z,5.87
2018-08-31T04:45:57.941Z,5.20
2018-08-31T04:48:26.214Z,5.57
2018-08-31T04:50:54.487Z,5.47
2018-08-31T04:53:22.776Z,5.47
2018-08-31T04:55:51.074Z,6.20
2018-08-31T04:58:19.331Z,5.70
2018-08-31T05:00:47.579Z,6.17
2018-08-31T05:03:15.890Z,5.10
2018-08-31T05:05:44.166Z,5.15
2018-08-31T05:08:12.440Z,5.30
2018-08-31T05:10:40.709Z,5.73
2018-08-31T05:13:08.987Z,5.20
2018-08-31T05:15:37.334Z,4.50
2018-08-31T05:18:05.602Z,5.90
2018-08-31T05:20:33.945Z,5.37
2018-08-31T05:23:02.264Z,5.77
2018-08-31T05:25:30.562Z,5.53
2018-08-31T05:27:58.934Z,6.10
2018-08-31T05:30:27.296Z,5.23
2018-08-31T05:32:55.611Z,5.90
2018-08-31T05:35:24.023Z,5.23
2018-08-31T05:37:52.340Z,5.50
2018-08-31T05:40:20.642Z,5.40
2018-08-31T05:42:48.937Z,5.23
2018-08-31T05:45:17.254Z,4.97
2018-08-31T05:47:45.513Z,4.30
2018-08-31T05:50:14.151Z,4.17
2018-08-31T05:52:42.410Z,4.50
2018-08-31T05:55:10.709Z,4.20
2018-08-31T05:57:39.063Z,4.63
2018-08-31T06:00:07.382Z,4.47
2018-08-31T06:02:35.799Z,4.00
2018-08-31T06:05:04.089Z,4.13
2018-08-31T06:07:32.362Z,3.60
2018-08-31T06:10:00.648Z,3.67
2018-08-31T06:12:30.033Z,4.12
2018-08-31T06:14:58.316Z,4.23
2018-08-31T06:17:26.608Z,3.10
2018-08-31T06:19:54.904Z,3.20
2018-08-31T06:22:23.180Z,3.30
2018-08-31T06:24:51.765Z,3.30
2018-08-31T06:27:20.210Z,3.00
2018-08-31T06:29:48.452Z,3.00
2018-08-31T06:32:16.760Z,2.97
2018-08-31T06:34:45.101Z,3.10
2018-08-31T06:37:13.497Z,3.37
2018-08-31T06:39:41.797Z,2.97
2018-08-31T06:42:10.093Z,3.62
2018-08-31T06:44:38.360Z,3.08
2018-08-31T06:47:06.732Z,3.07
2018-08-31T06:49:35.248Z,2.98
2018-08-31T06:52:03.663Z,3.10
2018-08-31T06:54:32.038Z,2.95
2018-08-31T06:57:00.416Z,2.60
2018-08-31T06:59:28.636Z,2.70
2018-08-31T07:01:56.839Z,2.95
2018-08-31T07:04:25.046Z,3.00
2018-08-31T07:06:53.219Z,4.07
2018-08-31T07:09:21.441Z,3.58
2018-08-31T07:11:49.676Z,3.77
2018-08-31T07:14:17.856Z,3.60
2018-08-31T07:16:46.052Z,3.08
2018-08-31T07:19:14.397Z,3.20
2018-08-31T07:21:42.606Z,2.83
2018-08-31T07:24:10.767Z,2.80
2018-08-31T07:26:39.033Z,2.60
2018-08-31T07:29:07.302Z,3.27
2018-08-31T07:31:35.581Z,2.67
2018-08-31T07:34:03.913Z,2.90
2018-08-31T07:36:32.292Z,3.47
2018-08-31T07:39:00.561Z,2.73
2018-08-31T07:41:28.777Z,2.80
2018-08-31T07:43:57.056Z,3.40
2018-08-31T07:46:25.368Z,2.80
2018-08-31T07:48:53.639Z,2.65
2018-08-31T07:51:21.940Z,3.37
2018-08-31T07:53:50.297Z,2.83
2018-08-31T07:56:18.597Z,2.98
2018-08-31T07:58:46.916Z,2.60
2018-08-31T08:01:15.127Z,2.90
2018-08-31T08:03:43.494Z,2.75
2018-08-31T08:06:11.694Z,2.50
2018-08-31T08:08:39.951Z,3.00
2018-08-31T08:11:08.166Z,3.75
2018-08-31T08:13:36.463Z,3.40
2018-08-31T08:16:05.074Z,2.60
2018-08-31T08:18:33.373Z,2.63
2018-08-31T08:21:01.766Z,2.85
2018-08-31T08:23:30.143Z,3.23
2018-08-31T08:25:58.365Z,2.70
2018-08-31T08:28:26.702Z,3.08
2018-08-31T08:30:55.146Z,2.43
2018-08-31T08:33:23.512Z,2.90
2018-08-31T08:35:51.914Z,3.03
2018-08-31T08:38:20.273Z,2.80
2018-08-31T08:40:48.612Z,2.53
2018-08-31T08:43:16.976Z,2.70
2018-08-31T08:45:45.235Z,2.40
2018-08-31T08:48:13.661Z,2.67
2018-08-31T08:50:41.903Z,2.50
2018-08-31T08:53:10.185Z,2.60
2018-08-31T08:55:38.499Z,2.58
2018-08-31T08:58:06.805Z,2.70
2018-08-31T09:03:28.088Z,2.93
2018-08-31T09:05:56.360Z,3.10
2018-08-31T09:08:24.582Z,3.45
2018-08-31T09:10:52.836Z,2.97
2018-08-31T09:13:21.183Z,3.07
2018-08-31T09:15:49.487Z,3.40
2018-08-31T09:18:18.755Z,3.30
2018-08-31T09:20:46.965Z,3.10
2018-08-31T09:23:15.325Z,3.03
2018-08-31T09:25:43.677Z,3.05
2018-08-31T09:28:11.970Z,3.20
2018-08-31T09:30:43.628Z,3.60
2018-08-31T09:33:11.932Z,3.93
2018-08-31T09:35:40.288Z,3.97
2018-08-31T09:38:08.651Z,3.70
2018-08-31T09:40:37.127Z,4.20
2018-08-31T09:43:05.696Z,3.90
2018-08-31T09:45:48.531Z,3.12
2018-08-31T09:48:16.813Z,3.90
2018-08-31T09:50:45.035Z,3.70
2018-08-31T09:53:13.333Z,3.27
2018-08-31T09:55:41.620Z,3.83
2018-08-31T09:58:09.946Z,3.77
2018-08-31T10:00:43.701Z,4.20
2018-08-31T10:03:17.376Z,3.73
2018-08-31T10:05:45.715Z,3.70
2018-08-31T10:08:14.565Z,4.67
2018-08-31T10:10:42.914Z,4.53
2018-08-31T10:13:11.145Z,4.37
2018-08-31T10:15:39.841Z,4.07
2018-08-31T10:18:08.449Z,4.25
2018-08-31T10:20:37.282Z,3.92
2018-08-31T10:23:05.593Z,4.40
2018-08-31T10:25:34.341Z,4.17
2018-08-31T10:28:02.612Z,3.57
2018-08-31T10:30:31.173Z,3.67
2018-08-31T10:32:59.551Z,3.97
2018-08-31T10:35:27.865Z,3.50
2018-08-31T10:37:56.530Z,3.70
2018-08-31T10:40:30.247Z,4.08
2018-08-31T10:42:58.997Z,4.10
2018-08-31T10:45:28.425Z,3.37
2018-08-31T10:47:56.804Z,3.50
2018-08-31T10:50:26.445Z,3.30
2018-08-31T10:52:54.795Z,3.30
2018-08-31T10:55:23.289Z,3.70
2018-08-31T10:57:54.383Z,3.43
2018-08-31T11:00:23.008Z,3.80
2018-08-31T11:02:53.606Z,3.05
2018-08-31T11:05:21.965Z,2.93
2018-08-31T11:07:50.384Z,3.27
2018-08-31T11:10:24.172Z,3.33
2018-08-31T11:12:52.461Z,3.73
2018-08-31T11:15:20.857Z,3.40
2018-08-31T11:17:49.047Z,3.02
2018-08-31T11:20:17.381Z,3.20
2018-08-31T11:22:46.366Z,2.75
2018-08-31T11:25:14.745Z,3.52
2018-08-31T11:27:43.052Z,3.43
2018-08-31T11:30:11.327Z,2.97
2018-08-31T11:32:39.715Z,3.27
2018-08-31T11:35:07.908Z,2.85
2018-08-31T11:37:36.203Z,3.12
2018-08-31T11:40:04.505Z,3.30
2018-08-31T11:42:32.752Z,3.40
2018-08-31T11:45:01.066Z,3.55
2018-08-31T11:47:29.325Z,3.13
2018-08-31T11:49:57.657Z,3.37
2018-08-31T11:52:26.049Z,3.00
2018-08-31T11:54:54.576Z,3.63
2018-08-31T11:57:22.984Z,3.40
2018-08-31T11:59:51.409Z,3.30
2018-08-31T12:02:19.811Z,3.95
2018-08-31T12:04:48.018Z,3.27
2018-08-31T12:07:16.317Z,3.17
2018-08-31T12:09:44.743Z,3.25
2018-08-31T12:12:13.116Z,3.33
2018-08-31T12:14:41.521Z,2.67
2018-08-31T12:17:09.865Z,3.47
2018-08-31T12:19:38.170Z,3.60
2018-08-31T12:22:06.571Z,2.93
2018-08-31T12:24:34.941Z,3.05
2018-08-31T12:27:03.145Z,3.20
2018-08-31T12:29:31.514Z,3.13
2018-08-31T12:31:59.914Z,3.17
2018-08-31T12:34:28.359Z,3.17
2018-08-31T12:36:57.367Z,3.00
2018-08-31T12:39:26.378Z,2.90
2018-08-31T12:41:54.768Z,2.80
2018-08-31T12:44:25.681Z,3.02
2018-08-31T12:46:54.027Z,3.20
2018-08-31T12:49:27.021Z,3.08
2018-08-31T12:51:55.488Z,3.00
2018-08-31T12:54:23.832Z,2.75
2018-08-31T12:56:54.126Z,2.33
2018-08-31T12:59:22.520Z,2.67
2018-08-31T13:01:51.570Z,2.55
2018-08-31T13:04:20.009Z,3.17
2018-08-31T13:06:48.387Z,2.80
2018-08-31T13:09:16.764Z,2.55
2018-08-31T13:11:45.116Z,2.70
2018-08-31T13:14:13.522Z,2.72
2018-08-31T13:16:41.855Z,2.70
2018-08-31T13:19:10.176Z,2.70
2018-08-31T13:21:38.500Z,2.40
2018-08-31T13:24:06.765Z,2.60
2018-08-31T13:26:35.076Z,2.87
2018-08-31T13:29:03.468Z,3.30
2018-08-31T13:31:31.849Z,3.10
2018-08-31T13:34:00.268Z,2.90
2018-08-31T13:36:28.588Z,2.83
2018-08-31T13:38:56.953Z,2.30
2018-08-31T13:41:25.387Z,2.70
2018-08-31T13:43:53.717Z,2.40
2018-08-31T13:46:22.294Z,2.87
2018-08-31T13:48:50.591Z,2.50
2018-08-31T13:51:18.919Z,3.13
2018-08-31T13:53:47.197Z,2.67
2018-08-31T13:56:15.477Z,2.80
2018-08-31T13:58:43.883Z,2.90
2018-08-31T14:01:12.336Z,2.77
2018-08-31T14:03:40.676Z,2.90
2018-08-31T14:06:08.960Z,3.00
2018-08-31T14:08:37.275Z,3.47
2018-08-31T14:11:05.918Z,2.47
2018-08-31T14:13:34.235Z,2.70
2018-08-31T14:16:02.601Z,2.57
2018-08-31T14:18:31.110Z,2.93
2018-08-31T14:21:00.124Z,2.65
2018-08-31T14:23:28.840Z,3.00
2018-08-31T14:25:57.106Z,2.90
2018-08-31T14:28:25.443Z,2.70
2018-08-31T14:30:53.780Z,2.70
2018-08-31T14:33:22.066Z,2.87
2018-08-31T14:35:50.507Z,2.67
2018-08-31T14:38:18.896Z,2.80
2018-08-31T14:40:47.223Z,2.60
2018-08-31T14:43:15.444Z,2.70
2018-08-31T14:45:43.776Z,2.50
2018-08-31T14:48:12.099Z,2.87
2018-08-31T14:50:40.396Z,2.63
2018-08-31T14:53:08.692Z,3.27
2018-08-31T14:55:36.957Z,3.00
2018-08-31T14:58:05.237Z,2.70
2018-08-31T15:00:33.646Z,2.73
2018-08-31T15:03:02.001Z,2.73
2018-08-31T15:05:30.371Z,3.00
2018-08-31T15:07:58.630Z,3.10
2018-08-31T15:10:26.808Z,2.60
2018-08-31T15:12:55.071Z,2.77
2018-08-31T15:15:23.239Z,2.30
2018-08-31T15:17:51.446Z,2.70
2018-08-31T15:20:19.665Z,2.70
2018-08-31T15:22:47.878Z,2.70
2018-08-31T15:25:16.148Z,2.57
2018-08-31T15:27:44.384Z,2.75
2018-08-31T15:30:13.061Z,2.87
2018-08-31T15:32:41.263Z,2.85
2018-08-31T15:35:09.452Z,2.90
2018-08-31T15:37:37.635Z,2.70
2018-08-31T15:40:05.820Z,3.27
2018-08-31T15:42:34.089Z,2.60
2018-08-31T15:45:02.172Z,2.62
2018-08-31T15:47:30.326Z,2.70
2018-08-31T15:49:58.547Z,3.10
2018-08-31T15:52:27.043Z,3.00
2018-08-31T15:54:55.375Z,2.67
2018-08-31T15:57:23.648Z,2.20
2018-08-31T15:59:51.929Z,2.55
2018-08-31T16:02:20.263Z,2.73
2018-08-31T16:04:48.574Z,2.57
2018-08-31T16:07:16.875Z,2.85
2018-08-31T16:09:45.106Z,3.07
2018-08-31T16:12:13.373Z,2.90
2018-08-31T16:14:41.580Z,2.52
2018-08-31T16:17:09.805Z,2.50
2018-08-31T16:19:38.000Z,2.57
2018-08-31T16:22:06.293Z,2.80
2018-08-31T16:24:34.488Z,2.10
2018-08-31T16:27:02.799Z,3.07
2018-08-31T16:29:31.088Z,2.83
2018-08-31T16:31:59.301Z,2.60
2018-08-31T16:34:27.496Z,2.50
2018-08-31T16:36:55.718Z,2.62
2018-08-31T16:39:24.011Z,2.43
2018-08-31T16:41:52.304Z,2.83
2018-08-31T16:44:26.002Z,2.77
2018-08-31T16:46:54.306Z,2.87
2018-08-31T16:49:22.577Z,2.40
2018-08-31T16:51:50.868Z,2.77
2018-08-31T16:54:19.100Z,2.80
2018-08-31T16:56:47.369Z,2.93
2018-08-31T16:59:15.665Z,2.80
2018-08-31T17:01:43.924Z,2.50
2018-08-31T17:04:12.187Z,2.37
2018-08-31T17:09:34.384Z,2.20
2018-08-31T17:12:02.696Z,2.23
2018-08-31T17:14:30.980Z,2.40
2018-08-31T17:16:59.405Z,2.33
2018-08-31T17:19:27.719Z,2.60
2018-08-31T17:22:08.490Z,2.30
2018-08-31T17:24:36.783Z,2.63
2018-08-31T17:27:10.716Z,2.70
2018-08-31T17:29:44.560Z,2.60
2018-08-31T17:32:18.456Z,2.70
2018-08-31T17:34:52.125Z,2.40
2018-08-31T17:37:25.746Z,2.70
2018-08-31T17:39:54.316Z,2.57
2018-08-31T17:42:22.937Z,2.10
2018-08-31T17:44:51.221Z,2.73
2018-08-31T17:47:19.461Z,2.25
2018-08-31T17:49:47.940Z,2.80
2018-08-31T17:52:16.364Z,2.75
2018-08-31T17:54:44.822Z,2.77
2018-08-31T17:57:17.307Z,2.47
2018-08-31T17:59:46.662Z,2.50
2018-08-31T18:02:15.139Z,2.97
2018-08-31T18:04:43.618Z,2.75
2018-08-31T18:07:11.974Z,2.87
2018-08-31T18:09:40.501Z,2.70
2018-08-31T18:12:08.732Z,2.70
2018-08-31T18:14:36.997Z,2.47
2018-08-31T18:17:05.567Z,2.90
2018-08-31T18:19:33.934Z,2.40
2018-08-31T18:22:02.322Z,2.60
2018-08-31T18:24:30.572Z,2.60
2018-08-31T18:26:58.888Z,3.20
2018-08-31T18:29:27.248Z,2.43
2018-08-31T18:31:55.677Z,2.85
2018-08-31T18:34:24.356Z,2.67
2018-08-31T18:36:52.668Z,3.17
2018-08-31T18:39:21.041Z,2.70
2018-08-31T18:41:49.357Z,2.98
2018-08-31T18:44:17.795Z,2.60
2018-08-31T18:46:46.228Z,2.97
2018-08-31T18:49:14.710Z,3.07
2018-08-31T18:51:43.161Z,2.62
2018-08-31T18:54:11.917Z,3.10
2018-08-31T18:56:40.411Z,2.50
2018-08-31T18:59:08.808Z,2.65
2018-08-31T19:01:37.229Z,2.73
2018-08-31T19:04:05.628Z,2.83
2018-08-31T19:06:33.945Z,2.70
2018-08-31T19:09:02.213Z,2.60
2018-08-31T19:11:30.458Z,2.50
2018-08-31T19:13:58.656Z,2.83
2018-08-31T19:16:26.944Z,3.12
2018-08-31T19:18:55.400Z,2.93
2018-08-31T19:21:23.802Z,2.90
2018-08-31T19:23:52.107Z,3.00
2018-08-31T19:26:20.458Z,2.65
2018-08-31T19:28:48.722Z,2.70
2018-08-31T19:31:17.051Z,2.50
2018-08-31T19:33:45.390Z,2.90
2018-08-31T19:36:13.680Z,2.57
2018-08-31T19:38:42.353Z,2.43
2018-08-31T19:41:10.660Z,2.40
2018-08-31T19:43:38.855Z,2.35
2018-08-31T19:46:07.192Z,2.40
2018-08-31T19:48:35.457Z,2.40
2018-08-31T19:51:03.723Z,2.85
2018-08-31T19:53:31.993Z,2.30
2018-08-31T19:56:00.292Z,2.57
2018-08-31T19:58:28.561Z,2.30
2018-08-31T20:00:56.816Z,2.60
2018-08-31T20:03:25.083Z,2.50
2018-08-31T20:05:53.292Z,2.50
2018-08-31T20:08:21.524Z,2.30
2018-08-31T20:10:49.817Z,2.97
2018-08-31T20:13:18.059Z,2.33
2018-08-31T20:15:46.252Z,2.77
2018-08-31T20:18:14.528Z,2.50
2018-08-31T20:20:42.750Z,2.72
2018-08-31T20:23:10.933Z,3.03
2018-08-31T20:25:39.189Z,2.50
2018-08-31T20:28:07.359Z,2.33
2018-08-31T20:30:35.647Z,2.80
2018-08-31T20:33:03.823Z,2.47
2018-08-31T20:35:32.079Z,2.40
2018-08-31T20:38:00.506Z,2.43
2018-08-31T20:40:28.855Z,2.65
2018-08-31T20:42:57.325Z,2.70
2018-08-31T20:45:25.615Z,3.20
2018-08-31T20:47:53.941Z,3.50
2018-08-31T20:50:22.311Z,3.30
2018-08-31T20:52:50.875Z,3.13
2018-08-31T20:55:19.328Z,2.70
2018-08-31T20:57:47.673Z,3.30
2018-08-31T21:00:15.942Z,3.10
2018-08-31T21:02:44.230Z,3.00
2018-08-31T21:05:12.531Z,3.13
2018-08-31T21:07:40.787Z,2.80
2018-08-31T21:10:08.971Z,2.85
2018-08-31T21:12:37.163Z,3.23
2018-08-31T21:15:05.577Z,2.57
2018-08-31T21:17:33.885Z,2.80
2018-08-31T21:20:02.268Z,2.93
2018-08-31T21:22:30.704Z,3.67
2018-08-31T21:24:58.992Z,2.70
2018-08-31T21:27:27.395Z,3.60
2018-08-31T21:29:55.837Z,2.90
2018-08-31T21:32:24.106Z,2.45
2018-08-31T21:34:52.499Z,2.40
2018-08-31T21:37:20.845Z,2.70
2018-08-31T21:39:49.134Z,2.70
2018-08-31T21:42:17.441Z,2.60
2018-08-31T21:44:46.516Z,2.05
2018-08-31T21:47:14.788Z,2.53
2018-08-31T21:49:43.100Z,2.33
2018-08-31T21:52:11.434Z,2.42
2018-08-31T21:54:40.064Z,2.10
2018-08-31T21:57:08.410Z,2.75
2018-08-31T21:59:37.294Z,1.97
2018-08-31T22:02:05.724Z,2.10
2018-08-31T22:04:34.103Z,2.20
2018-08-31T22:07:02.327Z,1.93
2018-08-31T22:09:30.642Z,2.30
2018-08-31T22:11:58.924Z,2.12
2018-08-31T22:14:27.093Z,1.80
2018-08-31T22:16:55.406Z,2.50
2018-08-31T22:19:23.821Z,2.08
2018-08-31T22:21:52.305Z,2.43
2018-08-31T22:24:20.636Z,2.12
2018-08-31T22:26:49.008Z,2.33
2018-08-31T22:29:17.368Z,2.50
2018-08-31T22:31:45.961Z,2.20
2018-08-31T22:34:14.238Z,2.25
2018-08-31T22:36:42.452Z,2.77
2018-08-31T22:39:10.892Z,3.20
2018-08-31T22:41:39.416Z,2.80
2018-08-31T22:44:09.092Z,2.58
2018-08-31T22:46:37.412Z,2.50
2018-08-31T22:49:05.772Z,2.50
2018-08-31T22:51:34.113Z,2.42
2018-08-31T22:54:02.488Z,2.60
2018-08-31T22:56:30.884Z,2.50
2018-08-31T22:58:59.154Z,2.50
2018-08-31T23:01:27.560Z,2.53
2018-08-31T23:03:55.805Z,2.33
2018-08-31T23:06:24.170Z,2.57
2018-08-31T23:08:52.547Z,2.55
2018-08-31T23:11:20.823Z,2.47
2018-08-31T23:13:49.179Z,2.30
2018-08-31T23:16:17.499Z,2.80
2018-08-31T23:18:45.866Z,2.33
2018-08-31T23:21:14.148Z,2.60
2018-08-31T23:23:49.256Z,2.40
2018-08-31T23:26:18.027Z,2.50
2018-08-31T23:28:46.269Z,2.73
2018-08-31T23:31:14.678Z,2.60
2018-08-31T23:33:43.007Z,2.75
2018-08-31T23:36:11.314Z,3.03
2018-08-31T23:38:43.389Z,2.72
2018-08-31T23:41:11.820Z,2.90
2018-08-31T23:43:40.279Z,2.90
2018-08-31T23:46:08.744Z,2.80
2018-08-31T23:48:37.164Z,2.77
2018-08-31T23:51:06.209Z,3.20
2018-08-31T23:53:34.808Z,2.73
2018-08-31T23:56:03.320Z,3.10
2018-08-31T23:58:32.020Z,3.07
